»·PEaware :: TEXAN18 KRND-KRND

TEXAN18 :: KRND-KRND

FLIGHT INFORMATION

Flight Status: Arrived
Operator: Unknown
More flights by this operator :: More flights under this callsign
Pilot: Indie I. (23339)
Aircraft: BEECH AIRCRAFT T-6A TEXAN
(TEX2)
More flights by this aircraft type
Origin: KRND Randolph AFB
United States
Destination: KRND Randolph AFB
United States
More flights between these airports :: More routes between these airports
Route: FALLS DEP TO MOA THEN RADAR DELAY FOR 1+30 TO KSSF, KSKF BACK TO RND
File this flight plan on PilotEdge
Remarks: request random changes to IFR climbouts
Altitude:
(Current/Filed)
4,000ft
Speed:
(Current/Filed)
240kts
Departed: 05-Apr-20 06:18 AM
Arrived: 05-Apr-20 07:47 AM
Distance/Time
Traveled:
0nm/1:29
Distance/Time
To Go:
Arrived

Flight Plot

Page will automatically refresh every two minutes.

Flight plan parsing failed; only flown route is shown


Map Options




Map Legend


Flown Route
Filed Route
Departure Airport
Arrival Airport
Navaid (VOR, NDB)
Fix

Horizontal Profiles

Position Reports

Time Latitude Longitude Heading Altitude Ground
Speed
05-Apr-20 05:53 29.532640 -98.289586 102 765ft 0kts
05-Apr-20 05:54 29.532639 -98.289583 102 765ft 0kts
05-Apr-20 05:55 29.532639 -98.289581 102 765ft 0kts
05-Apr-20 05:56 29.532638 -98.289579 102 765ft 0kts
05-Apr-20 05:57 29.531695 -98.288293 142 765ft 20kts
05-Apr-20 05:58 29.531286 -98.288239 234 765ft 0kts
05-Apr-20 05:59 29.531285 -98.288240 234 765ft 0kts
05-Apr-20 06:00 29.531284 -98.288242 234 765ft 0kts
05-Apr-20 06:01 29.531283 -98.288244 234 765ft 0kts
05-Apr-20 06:02 29.531282 -98.288245 234 765ft 0kts
05-Apr-20 06:03 29.531281 -98.288247 234 765ft 0kts
05-Apr-20 06:04 29.531280 -98.288248 234 765ft 0kts
05-Apr-20 06:05 29.531279 -98.288250 234 765ft 0kts
05-Apr-20 06:06 29.531277 -98.288252 234 765ft 0kts
05-Apr-20 06:07 29.531276 -98.288254 234 765ft 0kts
05-Apr-20 06:08 29.531275 -98.288256 234 765ft 0kts
05-Apr-20 06:09 29.531274 -98.288258 234 765ft 0kts
05-Apr-20 06:10 29.531273 -98.288260 234 765ft 0kts
05-Apr-20 06:11 29.531272 -98.288262 234 765ft 0kts
05-Apr-20 06:13 29.531265 -98.288272 234 765ft 2kts
05-Apr-20 06:14 29.532737 -98.289621 328 765ft 15kts
05-Apr-20 06:15 29.534754 -98.291619 231 765ft 0kts
05-Apr-20 06:16 29.534751 -98.291623 231 765ft 0kts
05-Apr-20 06:17 29.534309 -98.292826 161 765ft 5kts
05-Apr-20 06:18 29.510305 -98.277587 162 1225ft 189kts
05-Apr-20 06:19 29.454891 -98.264543 163 3610ft 195kts
05-Apr-20 06:20 29.448731 -98.262512 163 3978ft 193kts
05-Apr-20 06:21 29.448731 -98.262512 163 3978ft 193kts
05-Apr-20 06:22 29.429571 -98.257113 168 5171ft 187kts
05-Apr-20 06:23 29.378357 -98.241896 162 7948ft 191kts
05-Apr-20 06:24 29.327183 -98.224989 164 10707ft 190kts
05-Apr-20 06:25 29.274375 -98.211473 167 12793ft 213kts
05-Apr-20 06:26 29.209206 -98.194261 166 12975ft 255kts
05-Apr-20 06:27 29.142628 -98.177618 169 12966ft 236kts
05-Apr-20 06:28 29.096512 -98.140155 80 12975ft 226kts
05-Apr-20 06:29 29.120512 -98.071871 64 13083ft 235kts
05-Apr-20 06:30 29.148929 -98.003072 66 13064ft 242kts
05-Apr-20 06:31 29.175821 -97.932376 63 13081ft 243kts
05-Apr-20 06:31 29.193921 -97.880083 101 11115ft 188kts
05-Apr-20 06:33 29.163048 -97.870850 133 9459ft 225kts
05-Apr-20 06:34 29.183302 -97.890918 345 8634ft 245kts
05-Apr-20 06:35 29.180041 -97.858107 196 8115ft 209kts
05-Apr-20 06:36 29.153936 -97.835544 15 7782ft 195kts
05-Apr-20 06:36 29.174163 -97.879062 294 6206ft 227kts
05-Apr-20 06:38 29.206663 -97.953323 304 6154ft 212kts
05-Apr-20 06:38 29.230824 -98.002541 270 5986ft 217kts
05-Apr-20 06:39 29.232488 -98.074574 272 4278ft 220kts
05-Apr-20 06:40 29.237208 -98.141463 273 3018ft 198kts
05-Apr-20 06:41 29.239728 -98.205582 272 2956ft 205kts
05-Apr-20 06:42 29.241606 -98.270563 272 3026ft 204kts
05-Apr-20 06:43 29.246095 -98.335936 274 2833ft 215kts
05-Apr-20 06:44 29.252618 -98.404299 276 2609ft 209kts
05-Apr-20 06:45 29.254727 -98.459200 224 2426ft 167kts
05-Apr-20 06:46 29.215191 -98.446798 146 2461ft 167kts
05-Apr-20 06:47 29.216282 -98.416338 336 2305ft 134kts
05-Apr-20 06:48 29.249467 -98.438453 327 2224ft 134kts
05-Apr-20 06:49 29.284113 -98.450962 344 1613ft 137kts
05-Apr-20 06:50 29.317914 -98.462690 343 1103ft 130kts
05-Apr-20 06:51 29.332387 -98.496506 343 1063ft 130kts
05-Apr-20 06:52 29.335597 -98.465304 101 794ft 128kts
05-Apr-20 06:53 29.304128 -98.445095 196 2566ft 208kts
05-Apr-20 06:54 29.241369 -98.440053 159 2321ft 228kts
05-Apr-20 06:55 29.194879 -98.403870 140 2336ft 164kts
05-Apr-20 06:56 29.212401 -98.390977 288 2308ft 157kts
05-Apr-20 06:57 29.239928 -98.428686 324 2202ft 160kts
05-Apr-20 06:58 29.279861 -98.457036 349 1978ft 190kts
05-Apr-20 06:59 29.322202 -98.464611 350 1272ft 137kts
05-Apr-20 07:00 29.311592 -98.439676 185 2443ft 175kts
05-Apr-20 07:01 29.262937 -98.442833 183 2440ft 177kts
05-Apr-20 07:02 29.220474 -98.418449 152 2280ft 172kts
05-Apr-20 07:03 29.215090 -98.385229 356 2456ft 167kts
05-Apr-20 07:04 29.238977 -98.428643 304 2430ft 175kts
05-Apr-20 07:05 29.280865 -98.452317 348 2206ft 158kts
05-Apr-20 07:06 29.322382 -98.463668 348 1214ft 144kts
05-Apr-20 07:07 29.307998 -98.448395 176 2484ft 165kts
05-Apr-20 07:08 29.260475 -98.443369 178 2465ft 171kts
05-Apr-20 07:09 29.219184 -98.420041 144 2552ft 171kts
05-Apr-20 07:10 29.238140 -98.408597 282 2486ft 164kts
05-Apr-20 07:11 29.261608 -98.446832 349 2356ft 158kts
05-Apr-20 07:12 29.298265 -98.456499 347 1751ft 126kts
05-Apr-20 07:13 29.328788 -98.471471 273 1074ft 129kts
05-Apr-20 07:14 29.341354 -98.488085 113 865ft 120kts
05-Apr-20 07:15 29.323009 -98.451430 183 1508ft 200kts
05-Apr-20 07:16 29.266566 -98.444884 173 2421ft 189kts
05-Apr-20 07:17 29.215076 -98.453465 246 3613ft 209kts
05-Apr-20 07:18 29.232654 -98.516417 295 3502ft 214kts
05-Apr-20 07:19 29.258739 -98.577132 298 3473ft 216kts
05-Apr-20 07:20 29.282323 -98.639920 290 3584ft 208kts
05-Apr-20 07:21 29.312718 -98.694581 342 3551ft 208kts
05-Apr-20 07:22 29.370191 -98.710362 346 3460ft 216kts
05-Apr-20 07:23 29.426672 -98.729859 340 3641ft 210kts
05-Apr-20 07:24 29.483572 -98.751845 343 3374ft 219kts
05-Apr-20 07:25 29.537567 -98.764107 22 3476ft 188kts
05-Apr-20 07:26 29.556642 -98.712773 76 3492ft 179kts
05-Apr-20 07:27 29.549274 -98.661031 134 3285ft 186kts
05-Apr-20 07:28 29.511899 -98.628127 160 2514ft 151kts
05-Apr-20 07:29 29.477097 -98.615814 163 2455ft 131kts
05-Apr-20 07:30 29.443916 -98.602709 162 1622ft 122kts
05-Apr-20 07:31 29.412486 -98.591523 162 1015ft 115kts
05-Apr-20 07:32 29.384227 -98.580972 163 754ft 117kts
05-Apr-20 07:33 29.342510 -98.560098 98 2995ft 192kts
05-Apr-20 07:34 29.389166 -98.528059 16 3503ft 213kts
05-Apr-20 07:35 29.447157 -98.512589 13 3516ft 214kts
05-Apr-20 07:36 29.506376 -98.501928 12 3546ft 212kts
05-Apr-20 07:37 29.564516 -98.484850 15 3493ft 216kts
05-Apr-20 07:38 29.623644 -98.474510 3 3539ft 214kts
05-Apr-20 07:39 29.677030 -98.454295 66 3537ft 213kts
05-Apr-20 07:40 29.676204 -98.392505 127 3156ft 170kts
05-Apr-20 07:41 29.644078 -98.365780 150 3102ft 131kts
05-Apr-20 07:42 29.612350 -98.344526 148 2477ft 126kts
05-Apr-20 07:43 29.583435 -98.324873 151 1884ft 118kts
05-Apr-20 07:44 29.554382 -98.306194 150 1277ft 117kts
05-Apr-20 07:45 29.527556 -98.288238 149 765ft 78kts
05-Apr-20 07:46 29.522452 -98.283991 60 765ft 0kts

Navigation Log

Ident Type
Flight plan parsing failed, navigation log unavailable